createdAt,value
2023-04-08T00:00:50.017Z,29.80
2023-04-08T00:01:52.724Z,29.55
2023-04-08T00:02:54.716Z,29.69
2023-04-08T00:03:57.176Z,29.68
2023-04-08T00:04:59.155Z,29.76
2023-04-08T00:06:03.364Z,29.59
2023-04-08T00:07:06.162Z,29.63
2023-04-08T00:08:08.459Z,29.67
2023-04-08T00:09:10.613Z,29.70
2023-04-08T00:10:12.458Z,29.50
2023-04-08T00:11:14.354Z,29.55
2023-04-08T00:12:16.647Z,29.65
2023-04-08T00:13:18.532Z,30.29
2023-04-08T00:14:21.832Z,29.59
2023-04-08T00:15:23.938Z,29.61
2023-04-08T00:16:26.317Z,29.46
2023-04-08T00:17:29.332Z,29.58
2023-04-08T00:18:31.460Z,29.58
2023-04-08T00:19:36.120Z,29.64
2023-04-08T00:20:38.200Z,29.58
2023-04-08T00:21:40.725Z,29.43
2023-04-08T00:22:43.628Z,29.85
2023-04-08T00:23:45.518Z,29.67
2023-04-08T00:24:47.513Z,29.65
2023-04-08T00:25:49.470Z,29.91
2023-04-08T00:26:53.877Z,29.64
2023-04-08T00:27:56.043Z,29.63
2023-04-08T00:28:58.056Z,29.54
2023-04-08T00:30:03.418Z,29.49
2023-04-08T00:31:05.892Z,29.67
2023-04-08T00:32:08.081Z,29.73
2023-04-08T00:33:10.135Z,29.63
2023-04-08T00:34:12.202Z,29.54
2023-04-08T00:35:15.259Z,29.52
2023-04-08T00:36:17.878Z,29.38
2023-04-08T00:37:19.753Z,29.66
2023-04-08T00:38:21.689Z,29.52
2023-04-08T00:39:23.711Z,29.58
2023-04-08T00:40:25.768Z,29.68
2023-04-08T00:41:28.213Z,29.68
2023-04-08T00:42:31.268Z,29.81
2023-04-08T00:43:33.768Z,29.53
2023-04-08T00:44:35.808Z,29.54
2023-04-08T00:45:37.715Z,29.48
2023-04-08T00:46:40.723Z,29.52
2023-04-08T00:47:44.455Z,29.57
2023-04-08T00:48:46.477Z,29.42
2023-04-08T00:49:49.884Z,29.59
2023-04-08T00:50:51.795Z,29.51
2023-04-08T00:51:55.948Z,29.43
2023-04-08T00:52:57.970Z,29.49
2023-04-08T00:54:02.198Z,29.48
2023-04-08T00:55:04.894Z,29.72
2023-04-08T00:56:07.012Z,29.53
2023-04-08T00:57:09.541Z,29.34
2023-04-08T00:58:13.816Z,29.42
2023-04-08T00:59:17.350Z,29.54
2023-04-08T01:00:19.243Z,29.54
2023-04-08T01:01:57.460Z,29.40
2023-04-08T01:03:46.558Z,29.30
2023-04-08T01:05:07.228Z,29.44
2023-04-08T01:06:51.401Z,29.48
2023-04-08T01:07:53.462Z,29.33
2023-04-08T01:08:58.082Z,29.60
2023-04-08T01:10:12.754Z,29.45
2023-04-08T01:11:15.458Z,29.55
2023-04-08T01:12:30.983Z,29.44
2023-04-08T01:13:39.899Z,29.38
2023-04-08T01:14:47.296Z,29.54
2023-04-08T01:15:50.262Z,29.43
2023-04-08T01:16:55.862Z,29.41
2023-04-08T01:18:02.084Z,29.45
2023-04-08T01:19:08.729Z,29.60
2023-04-08T01:20:15.143Z,29.36
2023-04-08T01:21:20.663Z,29.40
2023-04-08T01:23:07.611Z,29.25
2023-04-08T01:24:27.538Z,29.34
2023-04-08T01:25:35.488Z,29.49
2023-04-08T01:26:39.016Z,29.41
2023-04-08T01:27:42.743Z,29.49
2023-04-08T01:28:45.902Z,29.64
2023-04-08T01:29:49.379Z,29.42
2023-04-08T01:30:53.930Z,29.59
2023-04-08T01:31:57.481Z,29.54
2023-04-08T01:33:02.950Z,29.63
2023-04-08T01:34:07.515Z,29.59
2023-04-08T01:35:11.124Z,29.50
2023-04-08T01:36:14.424Z,29.47
2023-04-08T01:37:17.860Z,29.50
2023-04-08T01:38:23.279Z,29.42
2023-04-08T01:39:27.271Z,29.63
2023-04-08T01:40:29.982Z,29.58
2023-04-08T01:41:36.036Z,29.53
2023-04-08T01:42:39.321Z,29.44
2023-04-08T01:43:45.459Z,29.53
2023-04-08T01:44:48.310Z,29.54
2023-04-08T01:45:54.570Z,29.67
2023-04-08T01:46:58.105Z,29.75
2023-04-08T01:48:01.717Z,30.11
2023-04-08T01:49:08.254Z,29.64
2023-04-08T01:50:12.251Z,29.42
2023-04-08T01:51:15.380Z,29.54
2023-04-08T01:52:20.464Z,29.57
2023-04-08T01:53:22.683Z,29.47
2023-04-08T01:54:24.624Z,29.48
2023-04-08T01:55:28.296Z,29.42
2023-04-08T01:56:36.741Z,29.59
2023-04-08T01:57:41.603Z,29.47
2023-04-08T01:58:51.267Z,29.45
2023-04-08T02:00:00.193Z,29.39
2023-04-08T02:01:03.935Z,29.35
2023-04-08T02:02:09.508Z,29.41
2023-04-08T02:03:14.294Z,29.60
2023-04-08T02:04:16.902Z,29.37
2023-04-08T02:05:19.659Z,29.36
2023-04-08T02:06:23.035Z,29.58
2023-04-08T02:07:24.884Z,29.39
2023-04-08T02:08:26.931Z,29.63
2023-04-08T02:09:28.883Z,29.40
2023-04-08T02:10:30.782Z,29.55
2023-04-08T02:11:32.863Z,29.51
2023-04-08T02:12:35.505Z,29.58
2023-04-08T02:13:37.725Z,29.07
2023-04-08T02:14:39.678Z,29.47
2023-04-08T02:15:53.997Z,29.42
2023-04-08T02:17:25.032Z,29.37
2023-04-08T02:18:28.186Z,29.59
2023-04-08T02:19:40.419Z,29.45
2023-04-08T02:20:53.630Z,29.25
2023-04-08T02:22:09.346Z,29.45
2023-04-08T02:23:20.578Z,29.55
2023-04-08T02:24:23.735Z,29.33
2023-04-08T02:25:27.524Z,29.31
2023-04-08T02:26:30.130Z,29.36
2023-04-08T02:27:36.196Z,29.45
2023-04-08T02:28:40.386Z,29.55
2023-04-08T02:29:43.334Z,29.24
2023-04-08T02:30:52.156Z,29.50
2023-04-08T02:31:57.257Z,29.67
2023-04-08T02:33:03.317Z,29.31
2023-04-08T02:34:08.479Z,29.52
2023-04-08T02:35:13.455Z,29.50
2023-04-08T02:36:16.961Z,29.34
2023-04-08T02:37:19.369Z,29.45
2023-04-08T02:38:21.983Z,29.32
2023-04-08T02:39:32.860Z,29.42
2023-04-08T02:40:36.121Z,29.38
2023-04-08T02:41:38.384Z,29.27
2023-04-08T02:42:40.503Z,29.34
2023-04-08T02:43:45.062Z,29.23
2023-04-08T02:44:49.426Z,29.31
2023-04-08T02:45:51.508Z,29.41
2023-04-08T02:46:53.460Z,29.38
2023-04-08T02:47:55.476Z,29.32
2023-04-08T02:48:57.474Z,29.41
2023-04-08T02:49:59.275Z,29.43
2023-04-08T02:51:04.024Z,29.24
2023-04-08T02:52:05.832Z,29.31
2023-04-08T02:53:12.240Z,29.38
2023-04-08T02:54:14.118Z,29.31
2023-04-08T02:55:15.972Z,29.45
2023-04-08T02:56:17.843Z,29.04
2023-04-08T02:57:22.058Z,29.27
2023-04-08T02:58:24.083Z,29.21
2023-04-08T02:59:26.166Z,29.39
2023-04-08T03:00:29.509Z,29.66
2023-04-08T03:01:31.911Z,29.33
2023-04-08T03:02:34.111Z,29.13
2023-04-08T03:03:36.710Z,29.33
2023-04-08T03:04:38.783Z,29.42
2023-04-08T03:05:42.999Z,29.14
2023-04-08T03:06:47.569Z,29.30
2023-04-08T03:07:49.790Z,29.30
2023-04-08T03:08:51.768Z,29.46
2023-04-08T03:09:56.357Z,29.63
2023-04-08T03:10:59.673Z,29.10
2023-04-08T03:12:01.597Z,29.09
2023-04-08T03:13:06.120Z,29.24
2023-04-08T03:14:08.090Z,29.27
2023-04-08T03:15:10.592Z,29.06
2023-04-08T03:16:12.557Z,29.20
2023-04-08T03:17:14.703Z,29.36
2023-04-08T03:18:16.554Z,29.22
2023-04-08T03:19:18.785Z,29.23
2023-04-08T03:20:20.832Z,29.27
2023-04-08T03:21:22.782Z,29.20
2023-04-08T03:22:24.777Z,29.13
2023-04-08T03:23:26.727Z,29.10
2023-04-08T03:24:28.519Z,29.28
2023-04-08T03:25:31.827Z,29.20
2023-04-08T03:26:33.879Z,29.12
2023-04-08T03:27:35.774Z,29.33
2023-04-08T03:28:37.709Z,29.17
2023-04-08T03:29:39.933Z,29.19
2023-04-08T03:30:41.780Z,29.28
2023-04-08T03:31:43.702Z,29.45
2023-04-08T03:32:45.690Z,29.29
2023-04-08T03:33:48.417Z,29.46
2023-04-08T03:34:51.347Z,29.24
2023-04-08T03:35:54.810Z,29.25
2023-04-08T03:36:56.858Z,29.08
2023-04-08T03:37:58.622Z,29.06
2023-04-08T03:39:00.947Z,29.18
2023-04-08T03:40:03.550Z,29.03
2023-04-08T03:41:05.291Z,29.12
2023-04-08T03:42:07.437Z,29.25
2023-04-08T03:43:11.819Z,29.15
2023-04-08T03:44:13.703Z,29.17
2023-04-08T03:45:15.563Z,29.25
2023-04-08T03:46:18.665Z,29.28
2023-04-08T03:47:20.603Z,29.12
2023-04-08T03:48:24.293Z,29.23
2023-04-08T03:49:26.535Z,29.23
2023-04-08T03:50:28.761Z,29.01
2023-04-08T03:51:33.075Z,29.10
2023-04-08T03:52:34.937Z,29.26
2023-04-08T03:53:38.312Z,29.30
2023-04-08T03:54:40.555Z,29.29
2023-04-08T03:55:42.480Z,29.09
2023-04-08T03:56:45.683Z,29.01
2023-04-08T03:57:47.495Z,29.26
2023-04-08T03:58:49.732Z,28.72
2023-04-08T03:59:51.698Z,29.19
2023-04-08T04:00:54.565Z,29.11
2023-04-08T04:01:57.854Z,29.13
2023-04-08T04:03:02.318Z,29.21
2023-04-08T04:04:04.614Z,29.18
2023-04-08T04:05:07.274Z,29.17
2023-04-08T04:06:09.793Z,29.28
2023-04-08T04:07:11.670Z,29.21
2023-04-08T04:08:13.789Z,29.02
2023-04-08T04:09:16.994Z,29.26
2023-04-08T04:10:21.446Z,29.35
2023-04-08T04:11:23.539Z,29.31
2023-04-08T04:12:25.692Z,29.04
2023-04-08T04:13:27.602Z,29.27
2023-04-08T04:14:29.582Z,29.21
2023-04-08T04:15:31.648Z,29.19
2023-04-08T04:16:34.095Z,29.32
2023-04-08T04:17:36.684Z,29.31
2023-04-08T04:18:39.595Z,29.21
2023-04-08T04:19:42.501Z,28.99
2023-04-08T04:20:44.693Z,29.28
2023-04-08T04:21:49.241Z,29.18
2023-04-08T04:22:51.603Z,29.01
2023-04-08T04:23:54.919Z,29.17
2023-04-08T04:24:56.716Z,29.16
2023-04-08T04:25:58.701Z,29.15
2023-04-08T04:27:00.813Z,29.16
2023-04-08T04:28:03.266Z,29.04
2023-04-08T04:29:05.147Z,29.07
2023-04-08T04:30:09.787Z,29.12
2023-04-08T04:31:23.339Z,29.31
2023-04-08T04:32:25.874Z,29.11
2023-04-08T04:33:27.715Z,29.12
2023-04-08T04:34:29.746Z,29.16
2023-04-08T04:35:31.771Z,28.94
2023-04-08T04:36:33.958Z,29.24
2023-04-08T04:37:36.444Z,29.33
2023-04-08T04:38:39.544Z,29.06
2023-04-08T04:39:41.606Z,29.15
2023-04-08T04:40:44.463Z,28.93
2023-04-08T04:41:47.370Z,29.07
2023-04-08T04:42:49.580Z,29.31
2023-04-08T04:43:51.924Z,29.06
2023-04-08T04:44:54.704Z,29.00
2023-04-08T04:45:57.116Z,29.17
2023-04-08T04:46:58.992Z,28.92
2023-04-08T04:48:01.435Z,28.96
2023-04-08T04:49:05.976Z,29.22
2023-04-08T04:50:08.646Z,29.00
2023-04-08T04:51:10.763Z,28.97
2023-04-08T04:52:13.004Z,29.09
2023-04-08T04:53:14.854Z,29.05
2023-04-08T04:54:17.954Z,29.46
2023-04-08T04:55:20.079Z,29.19
2023-04-08T04:56:23.419Z,29.17
2023-04-08T04:57:25.967Z,29.28
2023-04-08T04:58:28.475Z,29.12
2023-04-08T04:59:31.071Z,29.38
2023-04-08T05:00:32.936Z,28.86
2023-04-08T05:01:36.561Z,29.12
2023-04-08T05:02:38.647Z,28.85
2023-04-08T05:03:41.179Z,29.14
2023-04-08T05:04:43.054Z,29.18
2023-04-08T05:05:45.987Z,29.20
2023-04-08T05:06:47.869Z,28.74
2023-04-08T05:07:51.768Z,29.06
2023-04-08T05:08:54.053Z,28.96
2023-04-08T05:09:56.218Z,29.07
2023-04-08T05:11:02.114Z,29.26
2023-04-08T05:12:04.318Z,29.06
2023-04-08T05:13:06.401Z,29.03
2023-04-08T05:14:08.314Z,29.06
2023-04-08T05:15:10.932Z,29.11
2023-04-08T05:16:13.050Z,28.83
2023-04-08T05:17:15.259Z,29.22
2023-04-08T05:18:18.715Z,29.23
2023-04-08T05:19:20.559Z,28.67
2023-04-08T05:20:22.425Z,29.32
2023-04-08T05:21:24.736Z,29.11
2023-04-08T05:22:27.500Z,29.12
2023-04-08T05:23:29.386Z,29.07
2023-04-08T05:24:31.433Z,28.92
2023-04-08T05:25:34.710Z,29.14
2023-04-08T05:26:37.834Z,28.99
2023-04-08T05:27:40.543Z,29.04
2023-04-08T05:28:42.448Z,28.96
2023-04-08T05:29:44.280Z,28.93
2023-04-08T05:30:53.197Z,28.92
2023-04-08T05:31:57.645Z,29.18
2023-04-08T05:33:00.809Z,29.16
2023-04-08T05:34:03.297Z,28.99
2023-04-08T05:35:05.910Z,29.04
2023-04-08T05:36:09.334Z,28.98
2023-04-08T05:37:11.394Z,28.93
2023-04-08T05:38:13.323Z,29.27
2023-04-08T05:39:15.530Z,29.18
2023-04-08T05:40:19.215Z,29.10
2023-04-08T05:41:21.435Z,29.17
2023-04-08T05:42:23.394Z,29.24
2023-04-08T05:43:25.361Z,29.16
2023-04-08T05:44:27.207Z,29.08
2023-04-08T05:45:30.434Z,29.19
2023-04-08T05:46:33.840Z,29.25
2023-04-08T05:47:35.819Z,29.04
2023-04-08T05:48:37.742Z,29.17
2023-04-08T05:49:39.617Z,29.07
2023-04-08T05:50:41.893Z,29.10
2023-04-08T05:51:44.010Z,28.94
2023-04-08T05:52:46.316Z,28.94
2023-04-08T05:53:48.349Z,29.06
2023-04-08T05:54:50.231Z,28.99
2023-04-08T05:55:52.755Z,29.26
2023-04-08T05:56:55.730Z,29.13
2023-04-08T05:57:57.595Z,29.14
2023-04-08T05:58:59.504Z,29.04
2023-04-08T06:00:03.169Z,29.14
2023-04-08T06:01:07.414Z,28.91
2023-04-08T06:02:09.433Z,28.96
2023-04-08T06:03:11.758Z,29.18
2023-04-08T06:04:13.958Z,28.99
2023-04-08T06:05:16.171Z,28.96
2023-04-08T06:06:18.411Z,29.07
2023-04-08T06:07:20.773Z,29.19
2023-04-08T06:08:23.675Z,29.17
2023-04-08T06:09:26.719Z,28.97
2023-04-08T06:10:28.595Z,29.28
2023-04-08T06:11:30.802Z,29.23
2023-04-08T06:12:39.886Z,29.22
2023-04-08T06:13:42.804Z,29.29
2023-04-08T06:14:46.186Z,29.43
2023-04-08T06:15:51.419Z,29.21
2023-04-08T06:16:54.669Z,29.23
2023-04-08T06:17:56.644Z,29.41
2023-04-08T06:18:59.839Z,29.21
2023-04-08T06:20:02.244Z,29.70
2023-04-08T06:21:04.658Z,29.48
2023-04-08T06:22:06.642Z,29.52
2023-04-08T06:23:08.696Z,29.56
2023-04-08T06:24:10.819Z,29.43
2023-04-08T06:25:12.732Z,29.62
2023-04-08T06:26:16.651Z,29.26
2023-04-08T06:27:18.624Z,29.44
2023-04-08T06:28:21.915Z,29.49
2023-04-08T06:29:24.188Z,29.56
2023-04-08T06:30:26.310Z,29.63
2023-04-08T06:31:28.433Z,29.62
2023-04-08T06:32:30.810Z,29.62
2023-04-08T06:33:33.050Z,29.56
2023-04-08T06:34:34.958Z,29.40
2023-04-08T06:35:37.746Z,29.70
2023-04-08T06:36:39.757Z,29.47
2023-04-08T06:37:41.747Z,29.45
2023-04-08T06:38:43.992Z,29.50
2023-04-08T06:39:46.011Z,29.60
2023-04-08T06:40:47.888Z,29.35
2023-04-08T06:41:50.045Z,29.55
2023-04-08T06:42:52.242Z,29.33
2023-04-08T06:43:54.455Z,29.37
2023-04-08T06:44:56.748Z,29.45
2023-04-08T06:45:59.394Z,29.49
2023-04-08T06:47:01.433Z,29.28
2023-04-08T06:48:03.372Z,29.27
2023-04-08T06:49:07.225Z,29.37
2023-04-08T06:50:09.859Z,29.57
2023-04-08T06:51:13.496Z,29.34
2023-04-08T06:52:15.788Z,29.53
2023-04-08T06:53:17.693Z,29.29
2023-04-08T06:54:19.907Z,29.48
2023-04-08T06:55:21.967Z,29.45
2023-04-08T06:56:26.567Z,29.23
2023-04-08T06:57:29.515Z,29.51
2023-04-08T06:58:31.421Z,29.40
2023-04-08T06:59:33.999Z,29.24
2023-04-08T07:00:35.958Z,29.32
2023-04-08T07:01:38.549Z,29.65
2023-04-08T07:02:40.736Z,29.56
2023-04-08T07:03:42.812Z,29.51
2023-04-08T07:04:46.913Z,29.83
2023-04-08T07:05:49.391Z,29.99
2023-04-08T07:06:52.735Z,29.64
2023-04-08T07:07:57.189Z,29.79
2023-04-08T07:08:59.068Z,29.89
2023-04-08T07:10:01.078Z,29.66
2023-04-08T07:11:03.065Z,29.43
2023-04-08T07:12:05.016Z,29.60
2023-04-08T07:13:08.704Z,29.54
2023-04-08T07:14:11.595Z,29.46
2023-04-08T07:15:13.456Z,29.36
2023-04-08T07:16:15.837Z,29.12
2023-04-08T07:17:17.700Z,29.35
2023-04-08T07:18:21.460Z,29.33
2023-04-08T07:19:26.848Z,29.23
2023-04-08T07:20:29.754Z,29.22
2023-04-08T07:21:33.466Z,29.15
2023-04-08T07:22:35.256Z,29.35
2023-04-08T07:23:37.495Z,29.36
2023-04-08T07:24:39.421Z,29.34
2023-04-08T07:25:41.233Z,29.36
2023-04-08T07:26:43.522Z,29.28
2023-04-08T07:27:45.845Z,29.07
2023-04-08T07:28:47.805Z,29.21
2023-04-08T07:29:54.572Z,29.52
2023-04-08T07:30:57.598Z,29.28
2023-04-08T07:32:01.155Z,29.32
2023-04-08T07:33:03.409Z,29.26
2023-04-08T07:34:05.301Z,29.22
2023-04-08T07:35:07.821Z,29.26
2023-04-08T07:36:11.591Z,29.27
2023-04-08T07:37:13.456Z,29.12
2023-04-08T07:38:16.772Z,29.38
2023-04-08T07:39:18.790Z,29.35
2023-04-08T07:40:21.240Z,29.23
2023-04-08T07:41:23.049Z,29.16
2023-04-08T07:42:26.085Z,29.36
2023-04-08T07:43:28.249Z,29.34
2023-04-08T07:44:32.874Z,29.11
2023-04-08T07:45:34.961Z,29.35
2023-04-08T07:46:39.119Z,29.15
2023-04-08T07:47:41.427Z,29.23
2023-04-08T07:48:44.307Z,29.65
2023-04-08T07:49:49.231Z,29.39
2023-04-08T07:51:09.229Z,29.35
2023-04-08T07:52:12.550Z,29.21
2023-04-08T07:53:15.890Z,29.13
2023-04-08T07:54:18.071Z,29.14
2023-04-08T07:55:19.907Z,29.17
2023-04-08T07:56:22.452Z,29.22
2023-04-08T07:57:24.585Z,29.28
2023-04-08T07:58:26.671Z,29.18
2023-04-08T07:59:29.400Z,29.33
2023-04-08T08:00:33.325Z,29.81
2023-04-08T08:01:35.903Z,29.17
2023-04-08T08:02:37.810Z,29.41
2023-04-08T08:03:39.901Z,29.14
2023-04-08T08:04:42.058Z,29.37
2023-04-08T08:05:43.967Z,29.24
2023-04-08T08:06:47.882Z,29.21
2023-04-08T08:07:50.679Z,29.23
2023-04-08T08:08:54.964Z,29.38
2023-04-08T08:09:57.966Z,29.41
2023-04-08T08:10:59.795Z,29.22
2023-04-08T08:12:04.592Z,29.22
2023-04-08T08:13:08.202Z,29.24
2023-04-08T08:14:12.178Z,28.64
2023-04-08T08:15:15.093Z,29.36
2023-04-08T08:16:17.111Z,29.25
2023-04-08T08:17:19.410Z,29.20
2023-04-08T08:18:21.554Z,29.09
2023-04-08T08:19:23.650Z,29.32
2023-04-08T08:20:27.182Z,29.24
2023-04-08T08:21:29.238Z,29.19
2023-04-08T08:22:32.418Z,29.33
2023-04-08T08:23:34.427Z,29.17
2023-04-08T08:24:36.433Z,29.41
2023-04-08T08:25:38.625Z,29.11
2023-04-08T08:26:40.675Z,29.07
2023-04-08T08:27:42.651Z,29.22
2023-04-08T08:28:44.781Z,29.25
2023-04-08T08:29:47.720Z,29.32
2023-04-08T08:30:49.574Z,29.48
2023-04-08T08:31:51.486Z,29.38
2023-04-08T08:32:53.454Z,29.33
2023-04-08T08:33:55.397Z,29.19
2023-04-08T08:34:57.249Z,29.45
2023-04-08T08:35:59.296Z,29.24
2023-04-08T08:37:01.183Z,29.42
2023-04-08T08:38:03.227Z,29.47
2023-04-08T08:39:05.388Z,29.29
2023-04-08T08:40:09.048Z,29.14
2023-04-08T08:41:11.802Z,29.14
2023-04-08T08:42:25.229Z,29.15
2023-04-08T08:43:33.175Z,29.39
2023-04-08T08:44:35.139Z,29.35
2023-04-08T08:45:43.498Z,29.25
2023-04-08T08:46:47.392Z,29.53
2023-04-08T08:47:51.242Z,29.36
2023-04-08T08:48:53.465Z,29.16
2023-04-08T08:49:56.010Z,29.32
2023-04-08T08:50:59.393Z,29.31
2023-04-08T08:52:01.708Z,29.27
2023-04-08T08:53:04.191Z,29.18
2023-04-08T08:54:05.993Z,29.37
2023-04-08T08:55:26.913Z,29.20
2023-04-08T08:56:30.614Z,29.19
2023-04-08T08:57:32.838Z,28.94
2023-04-08T08:58:35.324Z,29.29
2023-04-08T08:59:37.117Z,29.33
2023-04-08T09:00:45.181Z,29.35
2023-04-08T09:01:49.005Z,29.25
2023-04-08T09:02:51.394Z,29.37
2023-04-08T09:04:11.987Z,29.33
2023-04-08T09:05:15.829Z,29.31
2023-04-08T09:06:18.763Z,29.70
2023-04-08T09:07:27.361Z,29.31
2023-04-08T09:08:36.977Z,29.29
2023-04-08T09:09:52.710Z,29.17
2023-04-08T09:10:56.637Z,29.40
2023-04-08T09:12:07.033Z,29.42
2023-04-08T09:13:09.091Z,29.16
2023-04-08T09:14:26.209Z,29.33
2023-04-08T09:15:28.486Z,29.31
2023-04-08T09:16:33.699Z,29.25
2023-04-08T09:17:41.328Z,29.26
2023-04-08T09:18:44.899Z,29.37
2023-04-08T09:20:12.124Z,29.40
2023-04-08T09:21:16.982Z,29.39
2023-04-08T09:22:18.951Z,29.52
2023-04-08T09:23:20.858Z,29.46
2023-04-08T09:24:31.324Z,29.43
2023-04-08T09:25:41.121Z,29.70
2023-04-08T09:26:46.684Z,29.45
2023-04-08T09:27:48.712Z,29.51
2023-04-08T09:29:25.056Z,29.32
2023-04-08T09:30:29.006Z,29.19
2023-04-08T09:31:38.304Z,29.33
2023-04-08T09:32:56.002Z,29.47
2023-04-08T09:34:09.626Z,29.05
2023-04-08T09:35:11.870Z,29.31
2023-04-08T09:36:15.506Z,29.54
2023-04-08T09:37:19.782Z,29.50
2023-04-08T09:38:22.178Z,29.32
2023-04-08T09:39:24.369Z,29.57
2023-04-08T09:40:30.246Z,29.18
2023-04-08T09:41:36.620Z,29.41
2023-04-08T09:42:43.896Z,29.47
2023-04-08T09:43:52.376Z,29.42
2023-04-08T09:44:56.064Z,29.32
2023-04-08T09:46:04.567Z,29.25
2023-04-08T09:47:24.165Z,29.27
2023-04-08T09:48:36.258Z,29.33
2023-04-08T09:49:56.409Z,29.44
2023-04-08T09:51:00.139Z,29.36
2023-04-08T09:52:22.530Z,29.42
2023-04-08T09:53:36.809Z,29.62
2023-04-08T09:54:59.327Z,29.34
2023-04-08T09:56:07.421Z,29.53
2023-04-08T09:57:25.869Z,29.81
2023-04-08T09:58:46.368Z,29.94
2023-04-08T10:00:04.036Z,29.92
2023-04-08T10:01:08.371Z,30.12
2023-04-08T10:02:16.755Z,30.81
2023-04-08T10:03:40.901Z,30.65
2023-04-08T10:04:49.178Z,30.63
2023-04-08T10:05:56.920Z,30.80
2023-04-08T10:07:06.305Z,30.73
2023-04-08T10:08:11.518Z,30.43
2023-04-08T10:09:14.090Z,30.49
2023-04-08T10:10:18.555Z,30.55
2023-04-08T10:11:21.021Z,30.76
2023-04-08T10:12:23.663Z,30.24
2023-04-08T10:13:29.030Z,30.37
2023-04-08T10:14:31.411Z,30.19
2023-04-08T10:15:36.702Z,31.06
2023-04-08T10:16:40.014Z,30.71
2023-04-08T10:17:41.981Z,30.72
2023-04-08T10:18:44.788Z,30.83
2023-04-08T10:19:46.708Z,30.93
2023-04-08T10:20:49.908Z,31.06
2023-04-08T10:21:53.137Z,30.63
2023-04-08T10:22:54.993Z,30.62
2023-04-08T10:23:59.895Z,30.85
2023-04-08T10:25:17.132Z,30.34
2023-04-08T10:26:44.440Z,30.14
2023-04-08T10:27:46.355Z,30.29
2023-04-08T10:28:48.604Z,30.45
2023-04-08T10:29:50.773Z,30.95
2023-04-08T10:31:00.251Z,31.02
2023-04-08T10:32:02.893Z,30.84
2023-04-08T10:33:12.848Z,30.89
2023-04-08T10:34:25.941Z,31.23
2023-04-08T10:35:37.330Z,31.02
2023-04-08T10:36:39.172Z,30.99
2023-04-08T10:37:44.311Z,31.13
2023-04-08T10:38:49.836Z,31.10
2023-04-08T10:39:54.846Z,30.77
2023-04-08T10:40:56.676Z,31.03
2023-04-08T10:42:02.821Z,31.19
2023-04-08T10:43:05.898Z,31.37
2023-04-08T10:44:24.190Z,31.38
2023-04-08T10:45:26.461Z,31.64
2023-04-08T10:46:38.912Z,31.44
2023-04-08T10:47:42.353Z,31.25
2023-04-08T10:48:44.993Z,31.19
2023-04-08T10:49:49.667Z,31.40
2023-04-08T10:50:59.945Z,31.41
2023-04-08T10:52:07.783Z,31.16
2023-04-08T10:53:11.315Z,31.15
2023-04-08T10:54:18.729Z,31.27
2023-04-08T10:55:28.753Z,31.16
2023-04-08T10:56:31.054Z,31.11
2023-04-08T10:57:33.093Z,30.95
2023-04-08T10:58:36.897Z,31.01
2023-04-08T10:59:39.813Z,30.95
2023-04-08T11:00:42.042Z,30.90
2023-04-08T11:01:47.366Z,30.40
2023-04-08T11:02:51.060Z,31.08
2023-04-08T11:03:53.952Z,30.75
2023-04-08T11:04:56.045Z,30.66
2023-04-08T11:05:59.696Z,30.86
2023-04-08T11:07:07.976Z,30.88
2023-04-08T11:08:09.782Z,30.65
2023-04-08T11:09:12.216Z,30.79
2023-04-08T11:10:14.093Z,30.88
2023-04-08T11:11:16.342Z,30.75
2023-04-08T11:12:21.905Z,30.75
2023-04-08T11:13:24.007Z,30.58
2023-04-08T11:14:26.135Z,30.58
2023-04-08T11:15:31.209Z,30.48
2023-04-08T11:16:35.472Z,30.58
2023-04-08T11:17:38.197Z,30.45
2023-04-08T11:18:41.026Z,30.77
2023-04-08T11:19:44.367Z,30.25
2023-04-08T11:20:46.399Z,30.32
2023-04-08T11:21:48.446Z,30.16
2023-04-08T11:22:51.661Z,30.60
2023-04-08T11:23:54.360Z,30.55
2023-04-08T11:24:58.033Z,30.23
2023-04-08T11:26:00.461Z,30.16
2023-04-08T11:27:06.608Z,30.05
2023-04-08T11:28:09.507Z,30.39
2023-04-08T11:29:14.393Z,30.52
2023-04-08T11:30:16.534Z,30.17
2023-04-08T11:31:23.564Z,30.23
2023-04-08T11:32:27.548Z,30.29
2023-04-08T11:33:33.077Z,30.39
2023-04-08T11:34:40.933Z,30.15
2023-04-08T11:35:44.269Z,30.31
2023-04-08T11:36:46.441Z,30.07
2023-04-08T11:37:52.280Z,30.07
2023-04-08T11:38:56.087Z,30.18
2023-04-08T11:39:58.520Z,30.15
2023-04-08T11:41:00.928Z,30.14
2023-04-08T11:42:04.447Z,30.37
2023-04-08T11:43:11.613Z,30.15
2023-04-08T11:44:14.126Z,30.14
2023-04-08T11:45:20.489Z,30.16
2023-04-08T11:46:27.553Z,30.40
2023-04-08T11:47:34.266Z,30.02
2023-04-08T11:48:38.150Z,30.13
2023-04-08T11:49:47.673Z,30.21
2023-04-08T11:51:12.594Z,29.91
2023-04-08T11:52:14.902Z,30.30
2023-04-08T11:53:23.477Z,30.15
2023-04-08T11:54:31.966Z,30.06
2023-04-08T11:55:34.515Z,30.13
2023-04-08T11:56:49.375Z,29.82
2023-04-08T11:57:52.771Z,30.06
2023-04-08T11:58:54.664Z,30.16
2023-04-08T11:59:57.019Z,29.98
2023-04-08T12:00:58.911Z,30.08
2023-04-08T12:02:02.755Z,30.07
2023-04-08T12:03:07.549Z,29.92
2023-04-08T12:04:11.938Z,29.99
2023-04-08T12:05:16.855Z,30.13
2023-04-08T12:06:19.446Z,30.23
2023-04-08T12:07:22.145Z,30.16
2023-04-08T12:08:23.995Z,30.09
2023-04-08T12:09:28.605Z,30.02
2023-04-08T12:10:30.877Z,30.01
2023-04-08T12:11:33.964Z,30.15
2023-04-08T12:12:37.372Z,30.10
2023-04-08T12:13:39.175Z,29.75
2023-04-08T12:14:41.292Z,29.70
2023-04-08T12:15:43.088Z,30.04
2023-04-08T12:16:45.077Z,29.99
2023-04-08T12:17:46.932Z,29.94
2023-04-08T12:18:49.618Z,29.95
2023-04-08T12:19:51.626Z,29.92
2023-04-08T12:20:53.788Z,29.84
2023-04-08T12:21:55.710Z,30.13
2023-04-08T12:22:57.598Z,29.93
2023-04-08T12:23:59.889Z,29.96
2023-04-08T12:25:04.586Z,29.88
2023-04-08T12:26:07.352Z,30.02
2023-04-08T12:27:09.755Z,29.92
2023-04-08T12:28:12.237Z,29.87
2023-04-08T12:29:14.250Z,30.02
2023-04-08T12:30:16.792Z,29.91
2023-04-08T12:31:19.068Z,30.15
2023-04-08T12:32:22.068Z,29.88
2023-04-08T12:33:24.114Z,30.09
2023-04-08T12:34:28.713Z,29.86
2023-04-08T12:35:31.236Z,29.90
2023-04-08T12:36:34.693Z,29.64
2023-04-08T12:37:37.890Z,29.89
2023-04-08T12:38:40.871Z,30.03
2023-04-08T12:39:43.215Z,29.89
2023-04-08T12:40:45.523Z,29.98
2023-04-08T12:41:47.674Z,30.21
2023-04-08T12:42:49.468Z,29.95
2023-04-08T12:43:51.320Z,29.79
2023-04-08T12:44:53.486Z,29.78
2023-04-08T12:45:56.636Z,29.68
2023-04-08T12:46:58.831Z,29.80
2023-04-08T12:48:03.579Z,29.84
2023-04-08T12:49:06.270Z,29.94
2023-04-08T12:50:12.868Z,29.73
2023-04-08T12:51:15.833Z,29.80
2023-04-08T12:52:18.690Z,29.76
2023-04-08T12:53:21.688Z,29.60
2023-04-08T12:54:33.649Z,29.55
2023-04-08T12:55:35.876Z,29.75
2023-04-08T12:56:39.135Z,29.68
2023-04-08T12:57:41.636Z,29.81
2023-04-08T12:58:44.027Z,29.80
2023-04-08T12:59:46.094Z,29.72
2023-04-08T13:00:50.131Z,29.90
2023-04-08T13:01:52.396Z,29.55
2023-04-08T13:02:56.824Z,29.53
2023-04-08T13:03:59.541Z,29.56
2023-04-08T13:05:02.218Z,29.62
2023-04-08T13:06:04.441Z,29.79
2023-04-08T13:07:07.653Z,29.99
2023-04-08T13:08:14.725Z,29.71
2023-04-08T13:09:17.007Z,29.55
2023-04-08T13:10:19.775Z,29.63
2023-04-08T13:11:22.528Z,29.61
2023-04-08T13:12:24.932Z,29.58
2023-04-08T13:13:27.109Z,29.66
2023-04-08T13:14:29.183Z,29.90
2023-04-08T13:15:31.431Z,29.88
2023-04-08T13:16:33.334Z,30.01
2023-04-08T13:17:38.756Z,29.73
2023-04-08T13:18:41.508Z,29.55
2023-04-08T13:19:43.381Z,30.10
2023-04-08T13:20:47.400Z,29.31
2023-04-08T13:21:52.671Z,29.82
2023-04-08T13:22:55.837Z,30.06
2023-04-08T13:23:57.862Z,29.79
2023-04-08T13:25:01.580Z,29.77
2023-04-08T13:26:04.080Z,29.86
2023-04-08T13:27:08.091Z,29.63
2023-04-08T13:28:11.980Z,29.73
2023-04-08T13:29:14.347Z,29.80
2023-04-08T13:30:20.791Z,29.79
2023-04-08T13:31:22.794Z,29.89
2023-04-08T13:32:24.905Z,29.84
2023-04-08T13:33:28.221Z,29.65
2023-04-08T13:34:30.641Z,29.83
2023-04-08T13:35:32.913Z,29.72
2023-04-08T13:36:34.843Z,29.41
2023-04-08T13:37:37.114Z,29.08
2023-04-08T13:38:38.940Z,29.04
2023-04-08T13:39:41.847Z,28.82
2023-04-08T13:40:43.865Z,28.91
2023-04-08T13:41:49.392Z,28.52
2023-04-08T13:42:54.635Z,28.64
2023-04-08T13:43:56.862Z,28.81
2023-04-08T13:44:59.408Z,28.56
2023-04-08T13:46:01.321Z,28.49
2023-04-08T13:47:03.357Z,28.37